sensor_id;sensor_type;location;lat;lon;timestamp;pressure;altitude;pressure_sealevel;temperature
40624;BMP280;26325;48.594;11.650;2024-03-08T00:00:11;96658.81;;;2.60
40624;BMP280;26325;48.594;11.650;2024-03-08T00:02:41;96655.88;;;2.57
40624;BMP280;26325;48.594;11.650;2024-03-08T00:05:08;96655.88;;;2.57
40624;BMP280;26325;48.594;11.650;2024-03-08T00:07:41;96656.13;;;2.74
40624;BMP280;26325;48.594;11.650;2024-03-08T00:10:11;96655.28;;;2.61
40624;BMP280;26325;48.594;11.650;2024-03-08T00:12:42;96661.97;;;2.62
40624;BMP280;26325;48.594;11.650;2024-03-08T00:15:16;96652.56;;;2.69
40624;BMP280;26325;48.594;11.650;2024-03-08T00:17:43;96658.84;;;2.66
40624;BMP280;26325;48.594;11.650;2024-03-08T00:20:09;96659.22;;;2.57
40624;BMP280;26325;48.594;11.650;2024-03-08T00:22:36;96648.16;;;2.50
40624;BMP280;26325;48.594;11.650;2024-03-08T00:25:06;96641.75;;;2.61
40624;BMP280;26325;48.594;11.650;2024-03-08T00:27:35;96643.69;;;2.59
40624;BMP280;26325;48.594;11.650;2024-03-08T00:30:02;96641.13;;;2.52
40624;BMP280;26325;48.594;11.650;2024-03-08T00:32:30;96641.97;;;2.66
40624;BMP280;26325;48.594;11.650;2024-03-08T00:34:57;96636.47;;;2.62
40624;BMP280;26325;48.594;11.650;2024-03-08T00:37:25;96629.00;;;2.61
40624;BMP280;26325;48.594;11.650;2024-03-08T00:39:51;96632.78;;;2.71
40624;BMP280;26325;48.594;11.650;2024-03-08T00:42:18;96624.69;;;2.61
40624;BMP280;26325;48.594;11.650;2024-03-08T00:44:43;96628.97;;;2.48
40624;BMP280;26325;48.594;11.650;2024-03-08T00:47:09;96627.34;;;2.41
40624;BMP280;26325;48.594;11.650;2024-03-08T00:49:35;96622.59;;;2.31
40624;BMP280;26325;48.594;11.650;2024-03-08T00:52:04;96611.06;;;2.42
40624;BMP280;26325;48.594;11.650;2024-03-08T00:54:35;96613.97;;;2.32
40624;BMP280;26325;48.594;11.650;2024-03-08T00:57:04;96614.34;;;2.29
40624;BMP280;26325;48.594;11.650;2024-03-08T00:59:30;96612.63;;;2.36
40624;BMP280;26325;48.594;11.650;2024-03-08T01:01:59;96606.13;;;2.34
40624;BMP280;26325;48.594;11.650;2024-03-08T01:04:26;96605.31;;;2.27
40624;BMP280;26325;48.594;11.650;2024-03-08T01:06:55;96607.47;;;2.24
40624;BMP280;26325;48.594;11.650;2024-03-08T01:09:22;96603.56;;;2.34
40624;BMP280;26325;48.594;11.650;2024-03-08T01:11:52;96597.66;;;2.27
40624;BMP280;26325;48.594;11.650;2024-03-08T01:14:20;96588.44;;;2.26
40624;BMP280;26325;48.594;11.650;2024-03-08T01:16:48;96589.69;;;2.36
40624;BMP280;26325;48.594;11.650;2024-03-08T01:19:14;96595.94;;;2.34
40624;BMP280;26325;48.594;11.650;2024-03-08T01:21:43;96583.38;;;2.32
40624;BMP280;26325;48.594;11.650;2024-03-08T01:24:09;96583.38;;;2.32
40624;BMP280;26325;48.594;11.650;2024-03-08T01:26:34;96572.09;;;2.47
40624;BMP280;26325;48.594;11.650;2024-03-08T01:29:03;96576.31;;;2.34
40624;BMP280;26325;48.594;11.650;2024-03-08T01:31:29;96571.81;;;2.30
40624;BMP280;26325;48.594;11.650;2024-03-08T01:33:56;96566.72;;;2.36
40624;BMP280;26325;48.594;11.650;2024-03-08T01:36:25;96560.25;;;2.34
40624;BMP280;26325;48.594;11.650;2024-03-08T01:38:51;96560.59;;;2.25
40624;BMP280;26325;48.594;11.650;2024-03-08T01:41:20;96564.16;;;2.24
40624;BMP280;26325;48.594;11.650;2024-03-08T01:43:48;96558.81;;;2.19
40624;BMP280;26325;48.594;11.650;2024-03-08T01:46:19;96559.81;;;2.24
40624;BMP280;26325;48.594;11.650;2024-03-08T01:48:47;96555.09;;;2.15
40624;BMP280;26325;48.594;11.650;2024-03-08T01:51:14;96557.25;;;2.18
40624;BMP280;26325;48.594;11.650;2024-03-08T01:53:45;96537.03;;;2.16
40624;BMP280;26325;48.594;11.650;2024-03-08T01:56:11;96542.72;;;2.12
40624;BMP280;26325;48.594;11.650;2024-03-08T01:58:38;96545.25;;;2.12
40624;BMP280;26325;48.594;11.650;2024-03-08T02:01:04;96542.69;;;2.06
40624;BMP280;26325;48.594;11.650;2024-03-08T02:03:30;96537.38;;;2.01
40624;BMP280;26325;48.594;11.650;2024-03-08T02:05:57;96535.69;;;2.14
40624;BMP280;26325;48.594;11.650;2024-03-08T02:08:24;96534.66;;;2.08
40624;BMP280;26325;48.594;11.650;2024-03-08T02:10:50;96533.88;;;2.08
40624;BMP280;26325;48.594;11.650;2024-03-08T02:15:59;96531.56;;;2.13
40624;BMP280;26325;48.594;11.650;2024-03-08T02:18:25;96524.09;;;2.11
40624;BMP280;26325;48.594;11.650;2024-03-08T02:23:22;96518.59;;;2.08
40624;BMP280;26325;48.594;11.650;2024-03-08T02:25:48;96521.91;;;2.08
40624;BMP280;26325;48.594;11.650;2024-03-08T02:28:14;96519.53;;;2.01
40624;BMP280;26325;48.594;11.650;2024-03-08T02:30:41;96510.56;;;2.11
40624;BMP280;26325;48.594;11.650;2024-03-08T02:33:07;96515.28;;;2.14
40624;BMP280;26325;48.594;11.650;2024-03-08T02:35:36;96518.81;;;2.13
40624;BMP280;26325;48.594;11.650;2024-03-08T02:38:03;96511.88;;;1.94
40624;BMP280;26325;48.594;11.650;2024-03-08T02:40:29;96514.25;;;2.02
40624;BMP280;26325;48.594;11.650;2024-03-08T02:42:55;96506.00;;;2.00
40624;BMP280;26325;48.594;11.650;2024-03-08T02:45:20;96503.06;;;1.97
40624;BMP280;26325;48.594;11.650;2024-03-08T02:47:46;96499.38;;;2.06
40624;BMP280;26325;48.594;11.650;2024-03-08T02:50:15;96503.69;;;2.05
40624;BMP280;26325;48.594;11.650;2024-03-08T02:52:42;96496.78;;;1.99
40624;BMP280;26325;48.594;11.650;2024-03-08T02:55:11;96495.81;;;1.94
40624;BMP280;26325;48.594;11.650;2024-03-08T02:57:40;96499.34;;;1.99
40624;BMP280;26325;48.594;11.650;2024-03-08T03:00:07;96502.06;;;1.91
40624;BMP280;26325;48.594;11.650;2024-03-08T03:02:53;96500.44;;;1.84
40624;BMP280;26325;48.594;11.650;2024-03-08T03:05:22;96501.88;;;1.93
40624;BMP280;26325;48.594;11.650;2024-03-08T03:10:14;96494.56;;;1.84
40624;BMP280;26325;48.594;11.650;2024-03-08T03:12:46;96486.75;;;1.85
40624;BMP280;26325;48.594;11.650;2024-03-08T03:15:13;96494.94;;;1.81
40624;BMP280;26325;48.594;11.650;2024-03-08T03:17:48;96495.53;;;1.83
40624;BMP280;26325;48.594;11.650;2024-03-08T03:20:17;96494.94;;;1.81
40624;BMP280;26325;48.594;11.650;2024-03-08T03:22:49;96486.47;;;1.74
40624;BMP280;26325;48.594;11.650;2024-03-08T03:25:21;96484.38;;;1.84
40624;BMP280;26325;48.594;11.650;2024-03-08T03:27:53;96480.25;;;1.76
40624;BMP280;26325;48.594;11.650;2024-03-08T03:30:25;96478.38;;;1.58
40624;BMP280;26325;48.594;11.650;2024-03-08T03:33:01;96479.25;;;1.71
40624;BMP280;26325;48.594;11.650;2024-03-08T03:35:28;96473.38;;;1.71
40624;BMP280;26325;48.594;11.650;2024-03-08T03:37:54;96476.63;;;1.58
40624;BMP280;26325;48.594;11.650;2024-03-08T03:40:35;96479.59;;;1.68
40624;BMP280;26325;48.594;11.650;2024-03-08T03:43:02;96483.56;;;1.71
40624;BMP280;26325;48.594;11.650;2024-03-08T03:45:31;96478.41;;;1.64
40624;BMP280;26325;48.594;11.650;2024-03-08T03:50:29;96471.22;;;1.74
40624;BMP280;26325;48.594;11.650;2024-03-08T03:52:55;96472.78;;;1.75
40624;BMP280;26325;48.594;11.650;2024-03-08T03:55:21;96478.69;;;1.82
40624;BMP280;26325;48.594;11.650;2024-03-08T03:57:47;96485.59;;;1.88
40624;BMP280;26325;48.594;11.650;2024-03-08T04:00:13;96480.34;;;1.95
40624;BMP280;26325;48.594;11.650;2024-03-08T04:02:40;96476.22;;;1.94
40624;BMP280;26325;48.594;11.650;2024-03-08T04:05:07;96470.16;;;2.02
40624;BMP280;26325;48.594;11.650;2024-03-08T04:07:34;96473.44;;;1.89
40624;BMP280;26325;48.594;11.650;2024-03-08T04:10:03;96473.13;;;2.05
40624;BMP280;26325;48.594;11.650;2024-03-08T04:12:32;96473.16;;;2.18
40624;BMP280;26325;48.594;11.650;2024-03-08T04:14:58;96474.72;;;2.12
40624;BMP280;26325;48.594;11.650;2024-03-08T04:17:23;96474.31;;;2.09
40624;BMP280;26325;48.594;11.650;2024-03-08T04:19:52;96462.53;;;2.08
40624;BMP280;26325;48.594;11.650;2024-03-08T04:22:18;96473.13;;;2.05
40624;BMP280;26325;48.594;11.650;2024-03-08T04:24:46;96470.78;;;2.10
40624;BMP280;26325;48.594;11.650;2024-03-08T04:27:13;96473.31;;;2.10
40624;BMP280;26325;48.594;11.650;2024-03-08T04:29:39;96467.25;;;2.11
40624;BMP280;26325;48.594;11.650;2024-03-08T04:32:07;96468.66;;;2.13
40624;BMP280;26325;48.594;11.650;2024-03-08T04:34:34;96463.38;;;2.15
40624;BMP280;26325;48.594;11.650;2024-03-08T04:37:01;96463.13;;;2.10
40624;BMP280;26325;48.594;11.650;2024-03-08T04:39:27;96452.78;;;2.18
40624;BMP280;26325;48.594;11.650;2024-03-08T04:42:02;96459.25;;;2.14
40624;BMP280;26325;48.594;11.650;2024-03-08T04:44:30;96455.91;;;2.20
40624;BMP280;26325;48.594;11.650;2024-03-08T04:46:58;96447.72;;;2.30
40624;BMP280;26325;48.594;11.650;2024-03-08T04:49:25;96456.28;;;2.17
40624;BMP280;26325;48.594;11.650;2024-03-08T04:51:51;96442.22;;;2.21
40624;BMP280;26325;48.594;11.650;2024-03-08T04:54:16;96442.97;;;2.15
40624;BMP280;26325;48.594;11.650;2024-03-08T04:56:50;96440.25;;;2.23
40624;BMP280;26325;48.594;11.650;2024-03-08T04:59:16;96432.75;;;2.08
40624;BMP280;26325;48.594;11.650;2024-03-08T05:01:41;96442.50;;;1.99
40624;BMP280;26325;48.594;11.650;2024-03-08T05:04:08;96438.03;;;2.07
40624;BMP280;26325;48.594;11.650;2024-03-08T05:06:33;96431.94;;;2.02
40624;BMP280;26325;48.594;11.650;2024-03-08T05:09:02;96420.19;;;2.07
40624;BMP280;26325;48.594;11.650;2024-03-08T05:11:47;96422.81;;;2.32
40624;BMP280;26325;48.594;11.650;2024-03-08T05:14:16;96416.72;;;2.14
40624;BMP280;26325;48.594;11.650;2024-03-08T05:16:47;96422.59;;;2.15
40624;BMP280;26325;48.594;11.650;2024-03-08T05:19:21;96405.50;;;2.09
40624;BMP280;26325;48.594;11.650;2024-03-08T05:21:48;96413.94;;;2.03
40624;BMP280;26325;48.594;11.650;2024-03-08T05:24:17;96414.56;;;2.18
40624;BMP280;26325;48.594;11.650;2024-03-08T05:26:51;96418.81;;;1.98
40624;BMP280;26325;48.594;11.650;2024-03-08T05:29:19;96407.81;;;1.91
40624;BMP280;26325;48.594;11.650;2024-03-08T05:31:49;96412.28;;;1.83
40624;BMP280;26325;48.594;11.650;2024-03-08T05:34:16;96415.84;;;1.89
40624;BMP280;26325;48.594;11.650;2024-03-08T05:36:42;96407.00;;;1.78
40624;BMP280;26325;48.594;11.650;2024-03-08T05:39:20;96411.66;;;1.75
40624;BMP280;26325;48.594;11.650;2024-03-08T05:42:00;96412.09;;;1.85
40624;BMP280;26325;48.594;11.650;2024-03-08T05:44:25;96411.84;;;1.73
40624;BMP280;26325;48.594;11.650;2024-03-08T05:46:59;96414.38;;;1.67
40624;BMP280;26325;48.594;11.650;2024-03-08T05:49:25;96408.00;;;1.84
40624;BMP280;26325;48.594;11.650;2024-03-08T05:51:51;96413.25;;;1.82
40624;BMP280;26325;48.594;11.650;2024-03-08T05:54:17;96409.56;;;1.85
40624;BMP280;26325;48.594;11.650;2024-03-08T05:56:53;96414.84;;;1.83
40624;BMP280;26325;48.594;11.650;2024-03-08T05:59:27;96404.25;;;1.80
40624;BMP280;26325;48.594;11.650;2024-03-08T06:01:57;96416.59;;;1.83
40624;BMP280;26325;48.594;11.650;2024-03-08T06:04:24;96400.59;;;1.95
40624;BMP280;26325;48.594;11.650;2024-03-08T06:06:51;96396.66;;;1.92
40624;BMP280;26325;48.594;11.650;2024-03-08T06:09:17;96390.16;;;1.90
40624;BMP280;26325;48.594;11.650;2024-03-08T06:11:48;96401.91;;;1.85
40624;BMP280;26325;48.594;11.650;2024-03-08T06:14:14;96394.72;;;1.94
40624;BMP280;26325;48.594;11.650;2024-03-08T06:16:53;96394.34;;;2.10
40624;BMP280;26325;48.594;11.650;2024-03-08T06:19:18;96390.47;;;2.20
40624;BMP280;26325;48.594;11.650;2024-03-08T06:21:44;96398.50;;;2.24
40624;BMP280;26325;48.594;11.650;2024-03-08T06:24:12;96392.44;;;2.50
40624;BMP280;26325;48.594;11.650;2024-03-08T06:26:37;96399.88;;;3.15
40624;BMP280;26325;48.594;11.650;2024-03-08T06:29:06;96393.34;;;3.44
40624;BMP280;26325;48.594;11.650;2024-03-08T06:31:35;96395.91;;;3.93
40624;BMP280;26325;48.594;11.650;2024-03-08T06:34:04;96396.81;;;4.65
40624;BMP280;26325;48.594;11.650;2024-03-08T06:36:36;96390.75;;;4.90
40624;BMP280;26325;48.594;11.650;2024-03-08T06:39:03;96386.63;;;6.01
40624;BMP280;26325;48.594;11.650;2024-03-08T06:41:36;96380.63;;;6.75
40624;BMP280;26325;48.594;11.650;2024-03-08T06:44:11;96379.91;;;7.80
40624;BMP280;26325;48.594;11.650;2024-03-08T06:46:38;96381.84;;;6.73
40624;BMP280;26325;48.594;11.650;2024-03-08T06:49:04;96402.88;;;5.77
40624;BMP280;26325;48.594;11.650;2024-03-08T06:51:34;96380.81;;;6.63
40624;BMP280;26325;48.594;11.650;2024-03-08T06:54:00;96386.81;;;6.57
40624;BMP280;26325;48.594;11.650;2024-03-08T06:56:26;96387.50;;;6.64
40624;BMP280;26325;48.594;11.650;2024-03-08T06:58:51;96380.81;;;7.75
40624;BMP280;26325;48.594;11.650;2024-03-08T07:01:17;96382.28;;;8.20
40624;BMP280;26325;48.594;11.650;2024-03-08T07:03:43;96380.38;;;9.03
40624;BMP280;26325;48.594;11.650;2024-03-08T07:06:11;96370.06;;;9.19
40624;BMP280;26325;48.594;11.650;2024-03-08T07:08:36;96379.03;;;8.25
40624;BMP280;26325;48.594;11.650;2024-03-08T07:11:02;96372.00;;;8.96
40624;BMP280;26325;48.594;11.650;2024-03-08T07:13:28;96364.03;;;10.29
40624;BMP280;26325;48.594;11.650;2024-03-08T07:15:54;96362.81;;;9.00
40624;BMP280;26325;48.594;11.650;2024-03-08T07:18:20;96364.84;;;8.98
40624;BMP280;26325;48.594;11.650;2024-03-08T07:23:14;96366.66;;;8.11
40624;BMP280;26325;48.594;11.650;2024-03-08T07:26:00;96358.13;;;10.60
40624;BMP280;26325;48.594;11.650;2024-03-08T07:28:26;96360.81;;;10.69
40624;BMP280;26325;48.594;11.650;2024-03-08T07:30:53;96350.91;;;12.23
40624;BMP280;26325;48.594;11.650;2024-03-08T07:33:26;96366.78;;;11.01
40624;BMP280;26325;48.594;11.650;2024-03-08T07:35:52;96369.75;;;8.83
40624;BMP280;26325;48.594;11.650;2024-03-08T07:38:20;96378.59;;;7.67
40624;BMP280;26325;48.594;11.650;2024-03-08T07:40:48;96382.44;;;7.42
40624;BMP280;26325;48.594;11.650;2024-03-08T07:43:16;96385.88;;;7.59
40624;BMP280;26325;48.594;11.650;2024-03-08T07:45:42;96377.19;;;7.37
40624;BMP280;26325;48.594;11.650;2024-03-08T07:48:08;96376.72;;;7.62
40624;BMP280;26325;48.594;11.650;2024-03-08T07:50:39;96372.38;;;8.01
40624;BMP280;26325;48.594;11.650;2024-03-08T07:53:06;96378.41;;;7.46
40624;BMP280;26325;48.594;11.650;2024-03-08T07:55:35;96374.56;;;7.82
40624;BMP280;26325;48.594;11.650;2024-03-08T07:58:02;96376.38;;;7.59
40624;BMP280;26325;48.594;11.650;2024-03-08T08:00:29;96369.31;;;7.77
40624;BMP280;26325;48.594;11.650;2024-03-08T08:02:58;96362.28;;;7.73
40624;BMP280;26325;48.594;11.650;2024-03-08T08:05:24;96350.44;;;8.10
40624;BMP280;26325;48.594;11.650;2024-03-08T08:07:49;96350.84;;;8.46
40624;BMP280;26325;48.594;11.650;2024-03-08T08:10:17;96356.72;;;7.92
40624;BMP280;26325;48.594;11.650;2024-03-08T08:12:50;96356.88;;;7.74
40624;BMP280;26325;48.594;11.650;2024-03-08T08:15:19;96349.44;;;7.73
40624;BMP280;26325;48.594;11.650;2024-03-08T08:17:46;96354.16;;;7.53
40624;BMP280;26325;48.594;11.650;2024-03-08T08:20:13;96342.16;;;7.81
40624;BMP280;26325;48.594;11.650;2024-03-08T08:22:42;96345.19;;;8.17
40624;BMP280;26325;48.594;11.650;2024-03-08T08:25:08;96348.47;;;7.51
40624;BMP280;26325;48.594;11.650;2024-03-08T08:27:34;96341.03;;;7.77
40624;BMP280;26325;48.594;11.650;2024-03-08T08:30:03;96337.94;;;8.02
40624;BMP280;26325;48.594;11.650;2024-03-08T08:32:34;96338.66;;;7.87
40624;BMP280;26325;48.594;11.650;2024-03-08T08:35:00;96341.31;;;7.42
40624;BMP280;26325;48.594;11.650;2024-03-08T08:37:30;96339.53;;;7.31
40624;BMP280;26325;48.594;11.650;2024-03-08T08:39:57;96341.91;;;7.22
40624;BMP280;26325;48.594;11.650;2024-03-08T08:42:23;96338.53;;;7.32
40624;BMP280;26325;48.594;11.650;2024-03-08T08:44:49;96339.03;;;6.96
40624;BMP280;26325;48.594;11.650;2024-03-08T08:47:16;96323.38;;;7.69
40624;BMP280;26325;48.594;11.650;2024-03-08T08:49:49;96324.22;;;7.86
40624;BMP280;26325;48.594;11.650;2024-03-08T08:52:16;96308.38;;;8.16
40624;BMP280;26325;48.594;11.650;2024-03-08T08:54:43;96313.66;;;7.71
40624;BMP280;26325;48.594;11.650;2024-03-08T08:57:10;96304.88;;;7.56
40624;BMP280;26325;48.594;11.650;2024-03-08T08:59:35;96308.31;;;7.61
40624;BMP280;26325;48.594;11.650;2024-03-08T09:02:02;96318.75;;;7.44
40624;BMP280;26325;48.594;11.650;2024-03-08T09:04:29;96307.22;;;7.85
40624;BMP280;26325;48.594;11.650;2024-03-08T09:06:56;96301.16;;;8.02
40624;BMP280;26325;48.594;11.650;2024-03-08T09:09:23;96310.56;;;8.08
40624;BMP280;26325;48.594;11.650;2024-03-08T09:11:48;96301.09;;;7.86
40624;BMP280;26325;48.594;11.650;2024-03-08T09:14:19;96306.75;;;8.26
40624;BMP280;26325;48.594;11.650;2024-03-08T09:16:45;96292.97;;;8.48
40624;BMP280;26325;48.594;11.650;2024-03-08T09:19:13;96291.72;;;8.83
40624;BMP280;26325;48.594;11.650;2024-03-08T09:21:38;96289.22;;;8.72
40624;BMP280;26325;48.594;11.650;2024-03-08T09:24:06;96290.91;;;7.91
40624;BMP280;26325;48.594;11.650;2024-03-08T09:26:32;96290.94;;;8.82
40624;BMP280;26325;48.594;11.650;2024-03-08T09:29:00;96279.84;;;9.77
40624;BMP280;26325;48.594;11.650;2024-03-08T09:31:25;96279.78;;;9.72
40624;BMP280;26325;48.594;11.650;2024-03-08T09:33:51;96273.06;;;9.92
40624;BMP280;26325;48.594;11.650;2024-03-08T09:36:19;96282.84;;;9.69
40624;BMP280;26325;48.594;11.650;2024-03-08T09:38:45;96272.13;;;9.98
40624;BMP280;26325;48.594;11.650;2024-03-08T09:41:15;96275.09;;;10.16
40624;BMP280;26325;48.594;11.650;2024-03-08T09:43:40;96264.06;;;9.94
40624;BMP280;26325;48.594;11.650;2024-03-08T09:46:07;96271.06;;;10.25
40624;BMP280;26325;48.594;11.650;2024-03-08T09:48:33;96265.34;;;10.84
40624;BMP280;26325;48.594;11.650;2024-03-08T09:51:00;96257.25;;;10.71
40624;BMP280;26325;48.594;11.650;2024-03-08T09:53:26;96261.34;;;9.80
40624;BMP280;26325;48.594;11.650;2024-03-08T09:55:55;96268.81;;;9.39
40624;BMP280;26325;48.594;11.650;2024-03-08T09:58:20;96256.66;;;9.35
40624;BMP280;26325;48.594;11.650;2024-03-08T10:00:58;96255.25;;;10.16
40624;BMP280;26325;48.594;11.650;2024-03-08T10:05:51;96244.31;;;10.05
40624;BMP280;26325;48.594;11.650;2024-03-08T10:08:17;96253.41;;;10.12
40624;BMP280;26325;48.594;11.650;2024-03-08T10:10:43;96253.94;;;9.88
40624;BMP280;26325;48.594;11.650;2024-03-08T10:13:10;96240.88;;;10.56
40624;BMP280;26325;48.594;11.650;2024-03-08T10:15:41;96245.94;;;9.89
40624;BMP280;26325;48.594;11.650;2024-03-08T10:18:07;96227.69;;;10.88
40624;BMP280;26325;48.594;11.650;2024-03-08T10:20:33;96225.38;;;10.91
40624;BMP280;26325;48.594;11.650;2024-03-08T10:23:05;96227.56;;;11.19
40624;BMP280;26325;48.594;11.650;2024-03-08T10:25:34;96225.78;;;10.38
40624;BMP280;26325;48.594;11.650;2024-03-08T10:28:03;96222.25;;;11.30
40624;BMP280;26325;48.594;11.650;2024-03-08T10:30:29;96222.09;;;11.10
40624;BMP280;26325;48.594;11.650;2024-03-08T10:32:55;96219.63;;;10.80
40624;BMP280;26325;48.594;11.650;2024-03-08T10:35:24;96212.47;;;11.42
40624;BMP280;26325;48.594;11.650;2024-03-08T10:37:56;96214.72;;;12.22
40624;BMP280;26325;48.594;11.650;2024-03-08T10:40:28;96221.81;;;11.47
40624;BMP280;26325;48.594;11.650;2024-03-08T10:42:59;96203.28;;;11.75
40624;BMP280;26325;48.594;11.650;2024-03-08T10:51:02;96203.25;;;11.60
40624;BMP280;26325;48.594;11.650;2024-03-08T10:53:29;96198.91;;;11.99
40624;BMP280;26325;48.594;11.650;2024-03-08T10:55:59;96202.50;;;11.74
40624;BMP280;26325;48.594;11.650;2024-03-08T10:58:27;96194.50;;;11.90
40624;BMP280;26325;48.594;11.650;2024-03-08T11:00:54;96190.91;;;12.40
40624;BMP280;26325;48.594;11.650;2024-03-08T11:03:44;96192.94;;;11.80
40624;BMP280;26325;48.594;11.650;2024-03-08T11:09:02;96182.59;;;11.84
40624;BMP280;26325;48.594;11.650;2024-03-08T11:11:32;96179.53;;;11.23
40624;BMP280;26325;48.594;11.650;2024-03-08T11:14:04;96182.44;;;10.85
40624;BMP280;26325;48.594;11.650;2024-03-08T11:19:24;96172.31;;;10.74
40624;BMP280;26325;48.594;11.650;2024-03-08T11:22:29;96156.50;;;11.96
40624;BMP280;26325;48.594;11.650;2024-03-08T11:25:05;96150.50;;;12.58
40624;BMP280;26325;48.594;11.650;2024-03-08T11:27:38;96155.16;;;12.56
40624;BMP280;26325;48.594;11.650;2024-03-08T11:30:06;96137.13;;;13.18
40624;BMP280;26325;48.594;11.650;2024-03-08T11:32:38;96146.13;;;13.35
40624;BMP280;26325;48.594;11.650;2024-03-08T11:37:34;96135.69;;;12.83
40624;BMP280;26325;48.594;11.650;2024-03-08T11:40:02;96139.63;;;12.56
40624;BMP280;26325;48.594;11.650;2024-03-08T11:42:30;96132.03;;;13.04
40624;BMP280;26325;48.594;11.650;2024-03-08T11:44:59;96123.16;;;13.62
40624;BMP280;26325;48.594;11.650;2024-03-08T11:47:25;96128.97;;;13.49
40624;BMP280;26325;48.594;11.650;2024-03-08T11:49:51;96118.09;;;13.90
40624;BMP280;26325;48.594;11.650;2024-03-08T11:52:19;96114.03;;;14.11
40624;BMP280;26325;48.594;11.650;2024-03-08T11:54:54;96104.88;;;14.47
40624;BMP280;26325;48.594;11.650;2024-03-08T11:57:23;96104.38;;;14.17
40624;BMP280;26325;48.594;11.650;2024-03-08T11:59:53;96105.75;;;14.37
40624;BMP280;26325;48.594;11.650;2024-03-08T12:02:19;96097.50;;;15.27
40624;BMP280;26325;48.594;11.650;2024-03-08T12:04:45;96091.84;;;15.97
40624;BMP280;26325;48.594;11.650;2024-03-08T12:07:13;96089.50;;;15.78
40624;BMP280;26325;48.594;11.650;2024-03-08T12:09:42;96090.38;;;14.96
40624;BMP280;26325;48.594;11.650;2024-03-08T12:12:12;96076.84;;;15.35
40624;BMP280;26325;48.594;11.650;2024-03-08T12:14:38;96086.50;;;15.71
40624;BMP280;26325;48.594;11.650;2024-03-08T12:17:08;96084.91;;;15.57
40624;BMP280;26325;48.594;11.650;2024-03-08T12:19:35;96087.97;;;15.77
40624;BMP280;26325;48.594;11.650;2024-03-08T12:22:09;96074.31;;;16.34
40624;BMP280;26325;48.594;11.650;2024-03-08T12:24:35;96073.38;;;16.69
40624;BMP280;26325;48.594;11.650;2024-03-08T12:27:19;96073.53;;;17.65
40624;BMP280;26325;48.594;11.650;2024-03-08T12:29:45;96065.31;;;17.71
40624;BMP280;26325;48.594;11.650;2024-03-08T12:32:12;96081.28;;;15.89
40624;BMP280;26325;48.594;11.650;2024-03-08T12:34:41;96085.84;;;15.97
40624;BMP280;26325;48.594;11.650;2024-03-08T12:37:08;96071.06;;;16.55
40624;BMP280;26325;48.594;11.650;2024-03-08T12:39:40;96083.03;;;14.98
40624;BMP280;26325;48.594;11.650;2024-03-08T12:42:06;96072.91;;;15.20
40624;BMP280;26325;48.594;11.650;2024-03-08T12:44:36;96076.94;;;15.30
40624;BMP280;26325;48.594;11.650;2024-03-08T12:47:06;96057.97;;;15.48
40624;BMP280;26325;48.594;11.650;2024-03-08T12:49:38;96054.06;;;16.00
40624;BMP280;26325;48.594;11.650;2024-03-08T12:52:10;96052.06;;;15.02
40624;BMP280;26325;48.594;11.650;2024-03-08T12:54:35;96056.56;;;14.91
40624;BMP280;26325;48.594;11.650;2024-03-08T12:57:01;96065.16;;;14.18
40624;BMP280;26325;48.594;11.650;2024-03-08T12:59:28;96054.75;;;13.91
40624;BMP280;26325;48.594;11.650;2024-03-08T13:01:57;96042.63;;;14.37
40624;BMP280;26325;48.594;11.650;2024-03-08T13:04:25;96035.56;;;14.19
40624;BMP280;26325;48.594;11.650;2024-03-08T13:06:53;96034.72;;;14.92
40624;BMP280;26325;48.594;11.650;2024-03-08T13:09:20;96029.22;;;15.89
40624;BMP280;26325;48.594;11.650;2024-03-08T13:11:48;96021.13;;;16.35
40624;BMP280;26325;48.594;11.650;2024-03-08T13:14:14;96006.78;;;16.77
40624;BMP280;26325;48.594;11.650;2024-03-08T13:16:40;96010.25;;;16.33
40624;BMP280;26325;48.594;11.650;2024-03-08T13:19:08;96005.84;;;17.68
40624;BMP280;26325;48.594;11.650;2024-03-08T13:21:34;96023.00;;;16.47
40624;BMP280;26325;48.594;11.650;2024-03-08T13:24:00;96001.38;;;16.60
40624;BMP280;26325;48.594;11.650;2024-03-08T13:26:27;96022.34;;;15.25
40624;BMP280;26325;48.594;11.650;2024-03-08T13:28:58;96010.13;;;16.38
40624;BMP280;26325;48.594;11.650;2024-03-08T13:31:26;96017.38;;;15.47
40624;BMP280;26325;48.594;11.650;2024-03-08T13:33:52;96024.09;;;14.71
40624;BMP280;26325;48.594;11.650;2024-03-08T13:36:23;96005.59;;;15.67
40624;BMP280;26325;48.594;11.650;2024-03-08T13:38:54;96001.38;;;15.71
40624;BMP280;26325;48.594;11.650;2024-03-08T13:41:19;96005.19;;;15.61
40624;BMP280;26325;48.594;11.650;2024-03-08T13:43:48;96000.00;;;15.24
40624;BMP280;26325;48.594;11.650;2024-03-08T13:46:17;95999.47;;;14.41
40624;BMP280;26325;48.594;11.650;2024-03-08T13:48:44;95991.81;;;15.49
40624;BMP280;26325;48.594;11.650;2024-03-08T13:51:13;95976.06;;;16.08
40624;BMP280;26325;48.594;11.650;2024-03-08T13:53:41;95968.25;;;16.74
40624;BMP280;26325;48.594;11.650;2024-03-08T13:56:08;95959.66;;;16.73
40624;BMP280;26325;48.594;11.650;2024-03-08T13:58:37;95961.53;;;17.20
40624;BMP280;26325;48.594;11.650;2024-03-08T14:01:03;95970.88;;;16.47
40624;BMP280;26325;48.594;11.650;2024-03-08T14:03:38;95981.84;;;15.56
40624;BMP280;26325;48.594;11.650;2024-03-08T14:06:07;95961.59;;;16.55
40624;BMP280;26325;48.594;11.650;2024-03-08T14:08:33;95965.66;;;15.59
40624;BMP280;26325;48.594;11.650;2024-03-08T14:10:58;95967.16;;;15.46
40624;BMP280;26325;48.594;11.650;2024-03-08T14:13:24;95977.63;;;13.63
40624;BMP280;26325;48.594;11.650;2024-03-08T14:15:50;95969.47;;;14.07
40624;BMP280;26325;48.594;11.650;2024-03-08T14:18:17;95967.69;;;14.89
40624;BMP280;26325;48.594;11.650;2024-03-08T14:20:42;95963.94;;;15.18
40624;BMP280;26325;48.594;11.650;2024-03-08T14:23:09;95964.28;;;15.48
40624;BMP280;26325;48.594;11.650;2024-03-08T14:25:49;95954.81;;;14.80
40624;BMP280;26325;48.594;11.650;2024-03-08T14:28:17;95950.88;;;13.95
40624;BMP280;26325;48.594;11.650;2024-03-08T14:30:44;95942.38;;;13.90
40624;BMP280;26325;48.594;11.650;2024-03-08T14:33:10;95935.97;;;13.50
40624;BMP280;26325;48.594;11.650;2024-03-08T14:35:37;95932.47;;;14.61
40624;BMP280;26325;48.594;11.650;2024-03-08T14:38:03;95926.50;;;14.19